createdAt,value
2022-10-03T00:01:55.865Z,50.02
2022-10-03T00:04:52.477Z,49.34
2022-10-03T00:07:51.720Z,49.47
2022-10-03T00:10:37.656Z,49.97
2022-10-03T00:13:24.681Z,49.31
2022-10-03T00:16:12.129Z,49.78
2022-10-03T00:19:01.184Z,49.55
2022-10-03T00:21:53.042Z,49.16
2022-10-03T00:24:41.386Z,49.66
2022-10-03T00:27:21.310Z,49.77
2022-10-03T00:30:15.421Z,49.71
2022-10-03T00:33:06.530Z,49.43
2022-10-03T00:36:13.418Z,49.15
2022-10-03T00:39:35.969Z,49.18
2022-10-03T00:43:05.473Z,49.17
2022-10-03T00:46:27.983Z,49.36
2022-10-03T00:49:53.555Z,49.38
2022-10-03T00:52:54.273Z,49.22
2022-10-03T00:55:48.830Z,49.22
2022-10-03T00:58:45.516Z,49.59
2022-10-03T01:01:36.835Z,49.73
2022-10-03T01:04:43.374Z,49.67
2022-10-03T01:07:55.776Z,48.92
2022-10-03T01:10:39.876Z,49.02
2022-10-03T01:13:34.103Z,48.94
2022-10-03T01:16:20.011Z,49.04
2022-10-03T01:19:09.664Z,49.32
2022-10-03T01:21:52.629Z,49.03
2022-10-03T01:25:01.265Z,48.82
2022-10-03T01:28:02.922Z,49.06
2022-10-03T01:30:48.257Z,49.44
2022-10-03T01:33:29.069Z,49.27
2022-10-03T01:36:13.370Z,49.14
2022-10-03T01:38:56.055Z,49.23
2022-10-03T01:41:38.630Z,49.35
2022-10-03T01:44:25.389Z,48.86
2022-10-03T01:47:20.039Z,48.99
2022-10-03T01:50:01.858Z,49.16
2022-10-03T01:52:47.711Z,48.96
2022-10-03T01:55:32.678Z,48.77
2022-10-03T01:58:10.896Z,48.55
2022-10-03T02:00:52.924Z,49.03
2022-10-03T02:03:34.307Z,48.82
2022-10-03T02:06:22.362Z,48.38
2022-10-03T02:09:05.087Z,48.42
2022-10-03T02:11:43.033Z,48.41
2022-10-03T02:14:35.567Z,48.95
2022-10-03T02:17:14.866Z,48.53
2022-10-03T02:19:59.119Z,48.60
2022-10-03T02:22:53.815Z,48.25
2022-10-03T02:25:54.267Z,48.77
2022-10-03T02:29:10.961Z,48.31
2022-10-03T02:32:18.207Z,48.47
2022-10-03T02:35:31.140Z,48.80
2022-10-03T02:38:22.832Z,48.15
2022-10-03T02:41:33.198Z,48.76
2022-10-03T02:44:48.763Z,48.04
2022-10-03T02:48:19.883Z,48.67
2022-10-03T02:51:42.697Z,48.30
2022-10-03T02:55:15.640Z,48.33
2022-10-03T02:58:37.032Z,48.90
2022-10-03T03:02:02.939Z,48.43
2022-10-03T03:05:27.643Z,48.51
2022-10-03T03:08:54.119Z,48.64
2022-10-03T03:12:18.532Z,48.71
2022-10-03T03:18:40.183Z,48.56
2022-10-03T03:21:32.299Z,48.51
2022-10-03T03:24:39.461Z,48.24
2022-10-03T03:27:34.617Z,48.47
2022-10-03T03:30:13.923Z,48.49
2022-10-03T03:33:12.531Z,48.60
2022-10-03T03:36:04.955Z,48.27
2022-10-03T03:38:46.978Z,48.24
2022-10-03T03:41:44.186Z,48.02
2022-10-03T03:45:05.246Z,48.28
2022-10-03T03:48:13.246Z,48.38
2022-10-03T03:50:58.306Z,48.34
2022-10-03T03:53:57.589Z,48.70
2022-10-03T03:56:52.767Z,48.24
2022-10-03T03:59:50.672Z,48.31
2022-10-03T04:02:39.201Z,47.84
2022-10-03T04:05:29.129Z,48.09
2022-10-03T04:08:36.443Z,47.73
2022-10-03T04:11:30.220Z,48.04
2022-10-03T04:14:40.033Z,48.27
2022-10-03T04:17:51.656Z,47.81
2022-10-03T04:20:46.229Z,48.14
2022-10-03T04:23:41.552Z,47.93
2022-10-03T04:26:40.295Z,48.45
2022-10-03T04:29:45.428Z,47.72
2022-10-03T04:32:47.465Z,47.62
2022-10-03T04:36:10.089Z,47.90
2022-10-03T04:38:56.981Z,47.94
2022-10-03T04:41:43.259Z,48.19
2022-10-03T04:44:35.622Z,48.18
2022-10-03T04:47:16.894Z,47.38
2022-10-03T04:49:59.230Z,47.97
2022-10-03T04:52:40.190Z,47.54
2022-10-03T04:55:29.247Z,47.41
2022-10-03T04:58:10.231Z,47.37
2022-10-03T05:01:01.314Z,47.60
2022-10-03T05:04:03.488Z,47.61
2022-10-03T05:06:49.630Z,47.42
2022-10-03T05:09:33.396Z,47.65
2022-10-03T05:12:18.035Z,47.76
2022-10-03T05:15:08.003Z,47.73
2022-10-03T05:17:52.609Z,47.10
2022-10-03T05:20:47.761Z,47.56
2022-10-03T05:23:43.277Z,47.02
2022-10-03T05:26:44.687Z,47.06
2022-10-03T05:29:30.512Z,47.09
2022-10-03T05:32:22.722Z,46.83
2022-10-03T05:35:34.002Z,46.93
2022-10-03T05:38:52.447Z,47.04
2022-10-03T05:41:31.771Z,47.25
2022-10-03T05:44:13.786Z,46.60
2022-10-03T05:47:01.871Z,47.24
2022-10-03T05:49:58.052Z,47.08
2022-10-03T05:53:04.418Z,46.91
2022-10-03T05:56:02.189Z,46.49
2022-10-03T05:59:12.612Z,46.51
2022-10-03T06:02:33.177Z,46.85
2022-10-03T06:05:27.441Z,46.28
2022-10-03T06:08:53.348Z,46.94
2022-10-03T06:12:07.851Z,46.99
2022-10-03T06:15:22.199Z,46.64
2022-10-03T06:18:06.430Z,46.60
2022-10-03T06:21:25.838Z,46.28
2022-10-03T06:24:53.097Z,46.89
2022-10-03T06:28:18.668Z,47.13
2022-10-03T06:31:37.032Z,46.59
2022-10-03T06:35:07.277Z,47.05
2022-10-03T06:38:37.489Z,46.59
2022-10-03T06:42:14.838Z,47.06
2022-10-03T06:45:47.492Z,46.39
2022-10-03T06:48:50.038Z,46.35
2022-10-03T06:52:10.242Z,46.84
2022-10-03T06:55:41.439Z,46.96
2022-10-03T06:59:16.326Z,46.68
2022-10-03T07:02:36.539Z,46.49
2022-10-03T07:06:01.788Z,46.32
2022-10-03T07:09:22.150Z,46.41
2022-10-03T07:12:49.785Z,46.85
2022-10-03T07:19:36.751Z,46.74
2022-10-03T07:22:52.769Z,46.35
2022-10-03T07:26:02.112Z,46.22
2022-10-03T07:29:20.215Z,45.94
2022-10-03T07:32:38.456Z,46.26
2022-10-03T07:36:31.648Z,45.92
2022-10-03T07:40:07.228Z,45.74
2022-10-03T07:43:25.769Z,45.72
2022-10-03T07:46:44.181Z,46.08
2022-10-03T07:49:52.503Z,45.55
2022-10-03T07:53:17.766Z,46.19
2022-10-03T07:56:12.840Z,45.75
2022-10-03T07:59:26.124Z,45.62
2022-10-03T08:02:27.422Z,45.50
2022-10-03T08:05:29.057Z,45.20
2022-10-03T08:08:43.977Z,45.72
2022-10-03T08:11:44.417Z,45.37
2022-10-03T08:14:25.759Z,45.45
2022-10-03T08:17:50.449Z,45.23
2022-10-03T08:21:04.992Z,44.96
2022-10-03T08:24:29.056Z,45.04
2022-10-03T08:27:33.274Z,45.22
2022-10-03T08:30:25.911Z,45.10
2022-10-03T08:33:48.485Z,44.76
2022-10-03T08:37:13.671Z,45.10
2022-10-03T08:40:29.958Z,44.82
2022-10-03T08:44:19.813Z,45.10
2022-10-03T08:47:44.278Z,44.91
2022-10-03T08:51:14.243Z,44.55
2022-10-03T08:54:16.922Z,44.73
2022-10-03T08:57:22.667Z,44.58
2022-10-03T09:00:18.400Z,44.65
2022-10-03T09:03:46.456Z,44.73
2022-10-03T09:07:17.147Z,44.52
2022-10-03T09:10:39.723Z,44.68
2022-10-03T09:13:58.412Z,43.93
2022-10-03T09:17:19.579Z,44.65
2022-10-03T09:20:26.076Z,44.22
2022-10-03T09:24:10.761Z,44.22
2022-10-03T09:27:28.673Z,44.23
2022-10-03T09:30:23.496Z,43.92
2022-10-03T09:33:55.854Z,44.16
2022-10-03T09:37:26.941Z,43.82
2022-10-03T09:40:53.576Z,43.98
2022-10-03T09:44:13.492Z,43.99
2022-10-03T09:47:28.739Z,43.40
2022-10-03T09:51:03.375Z,43.98
2022-10-03T09:54:34.952Z,43.67
2022-10-03T09:57:49.111Z,43.25
2022-10-03T10:00:34.511Z,43.07
2022-10-03T10:04:43.271Z,43.41
2022-10-03T10:08:00.856Z,42.94
2022-10-03T10:11:09.439Z,43.12
2022-10-03T10:14:45.835Z,43.13
2022-10-03T10:18:11.529Z,43.43
2022-10-03T10:21:36.093Z,43.00
2022-10-03T10:24:52.732Z,43.01
2022-10-03T10:28:28.344Z,43.18
2022-10-03T10:31:45.602Z,42.80
2022-10-03T10:35:16.435Z,43.49
2022-10-03T10:38:38.094Z,43.01
2022-10-03T10:41:58.722Z,43.47
2022-10-03T10:45:20.928Z,43.02
2022-10-03T10:49:00.089Z,43.52
2022-10-03T10:52:24.446Z,43.37
2022-10-03T10:55:55.399Z,43.33
2022-10-03T10:59:30.984Z,43.44
2022-10-03T11:03:01.982Z,43.99
2022-10-03T11:06:18.167Z,43.80
2022-10-03T11:09:29.029Z,43.92
2022-10-03T11:13:05.874Z,43.77
2022-10-03T11:16:51.461Z,44.07
2022-10-03T11:20:38.920Z,43.68
2022-10-03T11:24:07.000Z,44.15
2022-10-03T11:27:33.813Z,43.77
2022-10-03T11:31:10.546Z,44.35
2022-10-03T11:34:41.502Z,43.85
2022-10-03T11:37:34.785Z,44.20
2022-10-03T11:40:37.846Z,44.04
2022-10-03T11:43:56.329Z,43.95
2022-10-03T11:47:00.430Z,44.43
2022-10-03T11:50:08.122Z,43.92
2022-10-03T11:52:57.587Z,44.38
2022-10-03T11:55:36.749Z,44.31
2022-10-03T11:58:34.337Z,43.98
2022-10-03T12:01:30.652Z,44.36
2022-10-03T12:04:17.118Z,44.50
2022-10-03T12:07:24.381Z,44.00
2022-10-03T12:10:20.828Z,43.95
2022-10-03T12:12:56.487Z,44.47
2022-10-03T12:15:40.688Z,44.56
2022-10-03T12:18:20.734Z,44.56
2022-10-03T12:21:17.268Z,44.53
2022-10-03T12:24:26.257Z,44.44
2022-10-03T12:27:15.224Z,44.47
2022-10-03T12:29:59.265Z,44.40
2022-10-03T12:32:44.568Z,44.04
2022-10-03T12:35:36.760Z,44.67
2022-10-03T12:38:29.219Z,44.20
2022-10-03T12:41:18.740Z,44.54
2022-10-03T12:44:12.259Z,43.94
2022-10-03T12:47:02.900Z,44.48
2022-10-03T12:49:53.257Z,44.38
2022-10-03T12:52:31.400Z,44.36
2022-10-03T12:55:29.489Z,44.10
2022-10-03T12:58:12.579Z,44.11
2022-10-03T13:01:02.214Z,44.01
2022-10-03T13:03:51.063Z,44.10
2022-10-03T13:07:02.335Z,44.25
2022-10-03T13:10:06.293Z,44.72
2022-10-03T13:12:53.545Z,44.47
2022-10-03T13:16:04.555Z,44.30
2022-10-03T13:18:49.218Z,44.16
2022-10-03T13:24:33.878Z,44.12
2022-10-03T13:27:32.618Z,44.40
2022-10-03T13:30:27.130Z,44.17
2022-10-03T13:33:04.434Z,44.03
2022-10-03T13:36:03.106Z,44.32
2022-10-03T13:39:12.222Z,44.03
2022-10-03T13:42:10.829Z,44.15
2022-10-03T13:44:49.320Z,44.51
2022-10-03T13:47:56.303Z,44.11
2022-10-03T13:50:37.303Z,44.60
2022-10-03T13:53:17.869Z,44.62
2022-10-03T13:55:58.053Z,44.03
2022-10-03T13:58:48.180Z,43.90
2022-10-03T14:01:44.981Z,43.96
2022-10-03T14:05:00.088Z,44.51
2022-10-03T14:07:47.681Z,44.39
2022-10-03T14:10:39.685Z,44.05
2022-10-03T14:13:25.580Z,44.12
2022-10-03T14:16:06.808Z,44.38
2022-10-03T14:18:55.296Z,44.34
2022-10-03T14:22:03.735Z,44.84
2022-10-03T14:24:54.047Z,44.69
2022-10-03T14:27:54.796Z,44.32
2022-10-03T14:30:28.992Z,44.58
2022-10-03T14:33:22.892Z,44.54
2022-10-03T14:36:14.814Z,44.56
2022-10-03T14:39:33.106Z,44.46
2022-10-03T14:42:34.877Z,44.60
2022-10-03T14:45:12.294Z,44.97
2022-10-03T14:47:49.770Z,44.65
2022-10-03T14:50:27.401Z,44.68
2022-10-03T14:53:10.123Z,44.54
2022-10-03T14:55:58.790Z,44.55
2022-10-03T14:58:34.923Z,44.60
2022-10-03T15:01:14.548Z,44.68
2022-10-03T15:03:56.778Z,45.13
2022-10-03T15:06:56.883Z,45.07
2022-10-03T15:09:34.906Z,44.61
2022-10-03T15:12:15.291Z,44.74
2022-10-03T15:14:50.784Z,45.27
2022-10-03T15:17:25.376Z,44.71
2022-10-03T15:19:59.829Z,44.79
2022-10-03T15:22:39.950Z,44.93
2022-10-03T15:25:18.501Z,44.84
2022-10-03T15:27:56.561Z,44.56
2022-10-03T15:30:32.535Z,45.17
2022-10-03T15:33:16.066Z,44.67
2022-10-03T15:35:54.137Z,44.96
2022-10-03T15:38:29.981Z,45.31
2022-10-03T15:41:14.938Z,45.21
2022-10-03T15:44:01.372Z,44.80
2022-10-03T15:46:44.729Z,44.86
2022-10-03T15:49:27.346Z,45.48
2022-10-03T15:52:03.371Z,44.84
2022-10-03T15:54:39.037Z,45.51
2022-10-03T15:57:20.349Z,45.50
2022-10-03T16:00:03.059Z,44.87
2022-10-03T16:02:40.096Z,45.54
2022-10-03T16:05:26.321Z,45.52
2022-10-03T16:08:07.724Z,44.76
2022-10-03T16:10:43.407Z,45.11
2022-10-03T16:13:32.958Z,45.37
2022-10-03T16:16:20.081Z,44.95
2022-10-03T16:19:27.115Z,44.97
2022-10-03T16:22:15.623Z,45.43
2022-10-03T16:25:10.290Z,45.01
2022-10-03T16:27:52.823Z,45.26
2022-10-03T16:30:30.026Z,45.17
2022-10-03T16:33:19.310Z,45.16
2022-10-03T16:35:54.601Z,45.11
2022-10-03T16:38:29.206Z,45.80
2022-10-03T16:41:03.914Z,45.33
2022-10-03T16:43:37.087Z,45.23
2022-10-03T16:46:16.773Z,45.72
2022-10-03T16:49:06.677Z,45.90
2022-10-03T16:51:43.889Z,45.95
2022-10-03T16:54:20.680Z,45.71
2022-10-03T16:57:00.193Z,45.82
2022-10-03T16:59:34.577Z,45.49
2022-10-03T17:02:09.917Z,45.31
2022-10-03T17:04:47.977Z,45.94
2022-10-03T17:07:25.076Z,45.30
2022-10-03T17:09:58.276Z,45.63
2022-10-03T17:12:35.542Z,45.66
2022-10-03T17:15:11.702Z,45.63
2022-10-03T17:17:55.737Z,45.87
2022-10-03T17:20:48.551Z,45.57
2022-10-03T17:23:33.362Z,46.00
2022-10-03T17:26:12.289Z,45.60
2022-10-03T17:28:50.396Z,45.96
2022-10-03T17:31:36.061Z,45.84
2022-10-03T17:34:19.462Z,45.63
2022-10-03T17:37:46.162Z,46.09
2022-10-03T17:40:30.599Z,45.51
2022-10-03T17:43:08.717Z,46.13
2022-10-03T17:45:47.041Z,46.26
2022-10-03T17:48:23.798Z,46.17
2022-10-03T17:51:03.083Z,46.15
2022-10-03T17:53:41.577Z,45.71
2022-10-03T17:56:21.701Z,46.30
2022-10-03T17:58:59.826Z,45.76
2022-10-03T18:01:40.085Z,46.03
2022-10-03T18:04:21.083Z,46.18
2022-10-03T18:06:56.867Z,45.71
2022-10-03T18:09:41.095Z,46.27
2022-10-03T18:12:26.080Z,46.24
2022-10-03T18:15:44.009Z,46.38
2022-10-03T18:18:56.939Z,46.56
2022-10-03T18:22:00.423Z,45.81
2022-10-03T18:24:57.584Z,45.94
2022-10-03T18:28:02.592Z,46.22
2022-10-03T18:30:46.072Z,46.20
2022-10-03T18:33:21.391Z,45.95
2022-10-03T18:35:55.799Z,45.99
2022-10-03T18:38:29.723Z,46.34
2022-10-03T18:41:05.519Z,46.16
2022-10-03T18:43:45.651Z,46.30
2022-10-03T18:46:26.546Z,46.34
2022-10-03T18:49:35.997Z,46.46
2022-10-03T18:52:20.710Z,46.28
2022-10-03T18:55:03.917Z,45.94
2022-10-03T18:57:43.051Z,46.44
2022-10-03T19:00:22.743Z,46.42
2022-10-03T19:03:00.034Z,46.52
2022-10-03T19:05:40.393Z,46.49
2022-10-03T19:08:23.635Z,46.56
2022-10-03T19:10:58.211Z,46.05
2022-10-03T19:13:51.752Z,46.52
2022-10-03T19:16:56.027Z,45.95
2022-10-03T19:19:42.251Z,46.08
2022-10-03T19:22:19.857Z,46.30
2022-10-03T19:24:58.827Z,46.02
2022-10-03T19:27:50.047Z,45.99
2022-10-03T19:30:26.269Z,46.23
2022-10-03T19:33:04.706Z,46.67
2022-10-03T19:35:41.404Z,46.49
2022-10-03T19:38:21.097Z,46.08
2022-10-03T19:41:02.620Z,46.08
2022-10-03T19:43:42.258Z,46.14
2022-10-03T19:46:56.430Z,46.39
2022-10-03T19:49:53.254Z,46.12
2022-10-03T19:52:32.476Z,46.49
2022-10-03T19:55:14.128Z,46.33
2022-10-03T19:57:50.202Z,46.03
2022-10-03T20:00:31.901Z,46.15
2022-10-03T20:03:22.062Z,46.17
2022-10-03T20:06:02.204Z,46.22
2022-10-03T20:08:44.488Z,46.10
2022-10-03T20:11:36.897Z,46.56
2022-10-03T20:14:09.306Z,46.49
2022-10-03T20:16:50.009Z,46.16
2022-10-03T20:19:27.504Z,46.25
2022-10-03T20:22:00.571Z,46.07
2022-10-03T20:24:36.668Z,46.59
2022-10-03T20:27:27.610Z,46.59
2022-10-03T20:30:10.554Z,46.64
2022-10-03T20:32:46.606Z,46.56
2022-10-03T20:35:28.946Z,46.07
2022-10-03T20:38:09.624Z,46.53
2022-10-03T20:40:45.276Z,46.71
2022-10-03T20:43:41.695Z,46.39
2022-10-03T20:46:26.747Z,46.42
2022-10-03T20:49:16.664Z,46.10
2022-10-03T20:52:02.320Z,46.75
2022-10-03T20:54:39.123Z,46.71
2022-10-03T20:57:20.441Z,46.14
2022-10-03T21:00:00.892Z,46.18
2022-10-03T21:02:42.825Z,46.50
2022-10-03T21:05:24.735Z,46.63
2022-10-03T21:08:02.498Z,46.20
2022-10-03T21:10:38.991Z,46.04
2022-10-03T21:13:17.969Z,46.03
2022-10-03T21:15:52.237Z,46.18
2022-10-03T21:18:27.008Z,46.29
2022-10-03T21:21:09.731Z,46.65
2022-10-03T21:23:51.409Z,46.18
2022-10-03T21:26:28.114Z,46.03
2022-10-03T21:29:28.165Z,46.07
2022-10-03T21:32:19.362Z,46.64
2022-10-03T21:35:00.070Z,46.64
2022-10-03T21:37:42.920Z,45.95
2022-10-03T21:40:42.663Z,46.44
2022-10-03T21:43:32.844Z,46.30
2022-10-03T21:46:17.486Z,46.53
2022-10-03T21:49:22.341Z,46.14
2022-10-03T21:52:29.958Z,45.83
2022-10-03T21:55:50.747Z,46.06
2022-10-03T21:58:41.349Z,45.72
2022-10-03T22:01:22.123Z,45.89
2022-10-03T22:04:01.559Z,45.97
2022-10-03T22:06:41.846Z,46.04
2022-10-03T22:09:17.643Z,45.82
2022-10-03T22:11:57.827Z,45.90
2022-10-03T22:14:44.976Z,46.19
2022-10-03T22:17:28.557Z,46.31
2022-10-03T22:20:20.816Z,45.75
2022-10-03T22:23:18.789Z,45.71
2022-10-03T22:26:19.945Z,46.37
2022-10-03T22:29:03.708Z,45.77
2022-10-03T22:31:42.313Z,46.15
2022-10-03T22:34:39.298Z,46.35
2022-10-03T22:37:10.392Z,45.68
2022-10-03T22:39:41.630Z,46.06
2022-10-03T22:42:16.971Z,46.35
2022-10-03T22:44:55.260Z,45.62
2022-10-03T22:47:32.341Z,45.69
2022-10-03T22:50:09.332Z,45.74
2022-10-03T22:52:44.942Z,45.86
2022-10-03T22:55:21.864Z,46.20
2022-10-03T22:57:53.960Z,45.72
2022-10-03T23:00:30.553Z,45.71
2022-10-03T23:03:10.154Z,45.99
2022-10-03T23:06:19.900Z,45.74
2022-10-03T23:09:05.036Z,45.96
2022-10-03T23:11:39.500Z,46.38
2022-10-03T23:14:22.320Z,45.75
2022-10-03T23:17:04.813Z,46.29
2022-10-03T23:19:52.274Z,46.27
2022-10-03T23:22:30.462Z,46.46
2022-10-03T23:25:04.953Z,46.15
2022-10-03T23:28:12.305Z,45.68
2022-10-03T23:30:53.798Z,46.28
2022-10-03T23:33:58.875Z,46.08
2022-10-03T23:36:33.080Z,46.40
2022-10-03T23:39:03.736Z,46.29
2022-10-03T23:41:57.962Z,46.24
2022-10-03T23:44:51.286Z,46.00
2022-10-03T23:47:29.202Z,45.93
2022-10-03T23:50:02.371Z,45.78
2022-10-03T23:52:50.225Z,46.29
2022-10-03T23:55:26.560Z,46.05
2022-10-03T23:58:04.726Z,45.91
